createdAt,value
2018-03-14T00:00:18.219Z,0
2018-03-14T00:01:19.866Z,0
2018-03-14T00:02:21.522Z,0
2018-03-14T00:03:23.178Z,0
2018-03-14T00:04:24.819Z,0
2018-03-14T00:05:26.454Z,0
2018-03-14T00:06:28.108Z,0
2018-03-14T00:07:29.765Z,0
2018-03-14T00:08:31.406Z,0
2018-03-14T00:09:33.049Z,0
2018-03-14T00:10:34.738Z,0
2018-03-14T00:11:36.394Z,0
2018-03-14T00:12:38.050Z,0
2018-03-14T00:13:39.700Z,0
2018-03-14T00:14:41.346Z,0
2018-03-14T00:15:42.999Z,0
2018-03-14T00:16:44.653Z,0
2018-03-14T00:17:46.295Z,0
2018-03-14T00:18:47.940Z,0
2018-03-14T00:19:49.577Z,0
2018-03-14T00:20:51.221Z,0
2018-03-14T00:21:52.878Z,0
2018-03-14T00:22:54.519Z,0
2018-03-14T00:23:56.178Z,0
2018-03-14T00:24:57.825Z,0
2018-03-14T00:25:59.477Z,0
2018-03-14T00:27:01.119Z,0
2018-03-14T00:28:02.770Z,0
2018-03-14T00:29:04.420Z,0
2018-03-14T00:30:06.068Z,0
2018-03-14T00:31:07.722Z,0
2018-03-14T00:32:09.368Z,0
2018-03-14T00:33:11.027Z,0
2018-03-14T00:34:12.671Z,0
2018-03-14T00:35:14.320Z,0
2018-03-14T00:36:15.971Z,0
2018-03-14T00:37:17.622Z,0
2018-03-14T00:38:19.273Z,0
2018-03-14T00:39:20.914Z,0
2018-03-14T00:40:22.569Z,0
2018-03-14T00:41:24.212Z,0
2018-03-14T00:42:25.865Z,0
2018-03-14T00:43:27.524Z,0
2018-03-14T00:44:29.164Z,0
2018-03-14T00:45:30.819Z,0
2018-03-14T00:46:32.456Z,0
2018-03-14T00:47:34.102Z,0
2018-03-14T00:48:35.748Z,0
2018-03-14T00:49:37.404Z,0
2018-03-14T00:50:39.013Z,0
2018-03-14T00:51:40.786Z,0
2018-03-14T00:52:42.433Z,0
2018-03-14T00:53:44.075Z,0
2018-03-14T00:54:45.723Z,0
2018-03-14T00:55:47.381Z,0
2018-03-14T00:56:49.020Z,0
2018-03-14T00:57:50.666Z,0
2018-03-14T00:58:52.314Z,0
2018-03-14T00:59:53.961Z,0
2018-03-14T01:00:55.609Z,0
2018-03-14T01:01:57.258Z,0
2018-03-14T01:02:58.905Z,0
2018-03-14T01:04:00.558Z,0
2018-03-14T01:05:02.205Z,0
2018-03-14T01:06:03.854Z,0
2018-03-14T01:07:05.503Z,0
2018-03-14T01:08:07.151Z,0
2018-03-14T01:09:08.802Z,0
2018-03-14T01:10:10.451Z,0
2018-03-14T01:11:12.096Z,0
2018-03-14T01:12:13.746Z,0
2018-03-14T01:13:15.393Z,0
2018-03-14T01:14:17.040Z,0
2018-03-14T01:15:18.683Z,0
2018-03-14T01:16:20.336Z,0
2018-03-14T01:17:21.983Z,0
2018-03-14T01:18:23.629Z,0
2018-03-14T01:19:25.289Z,0
2018-03-14T01:20:26.937Z,0
2018-03-14T01:21:28.582Z,0
2018-03-14T01:22:30.231Z,0
2018-03-14T01:23:31.886Z,0
2018-03-14T01:24:33.536Z,0
2018-03-14T01:25:35.182Z,0
2018-03-14T01:26:36.874Z,0
2018-03-14T01:27:38.513Z,0
2018-03-14T01:28:40.178Z,0
2018-03-14T01:29:41.833Z,0
2018-03-14T01:30:43.488Z,0
2018-03-14T01:31:45.135Z,0
2018-03-14T01:32:46.780Z,0
2018-03-14T01:33:48.423Z,0
2018-03-14T01:34:50.076Z,0
2018-03-14T01:35:51.722Z,0
2018-03-14T01:36:53.366Z,0
2018-03-14T01:37:55.018Z,0
2018-03-14T01:38:56.664Z,0
2018-03-14T01:39:58.382Z,0
2018-03-14T01:41:00.026Z,0
2018-03-14T01:42:01.680Z,0
2018-03-14T01:43:03.324Z,0
2018-03-14T01:44:04.976Z,0
2018-03-14T01:45:06.626Z,0
2018-03-14T01:46:08.267Z,0
2018-03-14T01:47:09.919Z,0
2018-03-14T01:48:11.560Z,0
2018-03-14T01:49:13.214Z,0
2018-03-14T01:50:14.864Z,0
2018-03-14T01:51:16.534Z,0
2018-03-14T01:52:18.180Z,0
2018-03-14T01:53:19.828Z,0
2018-03-14T01:54:21.472Z,0
2018-03-14T01:55:23.119Z,0
2018-03-14T01:56:24.770Z,0
2018-03-14T01:57:26.420Z,0
2018-03-14T01:58:28.073Z,0
2018-03-14T01:59:29.717Z,0
2018-03-14T02:00:31.365Z,0
2018-03-14T02:01:33.966Z,0
2018-03-14T02:02:35.613Z,0
2018-03-14T02:03:37.263Z,0
2018-03-14T02:04:38.906Z,0
2018-03-14T02:05:40.555Z,0
2018-03-14T02:06:43.155Z,0
2018-03-14T02:07:43.804Z,0
2018-03-14T02:08:45.451Z,0
2018-03-14T02:09:47.097Z,0
2018-03-14T02:10:49.345Z,0
2018-03-14T02:11:50.995Z,0
2018-03-14T02:12:52.635Z,0
2018-03-14T02:13:54.282Z,0
2018-03-14T02:14:55.934Z,0
2018-03-14T02:15:57.578Z,0
2018-03-14T02:16:59.225Z,0
2018-03-14T02:18:00.875Z,0
2018-03-14T02:19:02.527Z,0
2018-03-14T02:20:04.176Z,0
2018-03-14T02:21:05.815Z,0
2018-03-14T02:22:07.458Z,0
2018-03-14T02:23:09.105Z,0
2018-03-14T02:24:10.764Z,0
2018-03-14T02:25:12.407Z,0
2018-03-14T02:26:14.061Z,0
2018-03-14T02:27:15.704Z,0
2018-03-14T02:28:17.353Z,0
2018-03-14T02:29:18.998Z,0
2018-03-14T02:30:20.647Z,0
2018-03-14T02:31:22.292Z,0
2018-03-14T02:32:23.940Z,0
2018-03-14T02:33:25.608Z,0
2018-03-14T02:34:27.258Z,0
2018-03-14T02:35:28.902Z,0
2018-03-14T02:36:30.554Z,0
2018-03-14T02:37:32.165Z,0
2018-03-14T02:38:33.807Z,0
2018-03-14T02:39:35.449Z,0
2018-03-14T02:40:37.096Z,0
2018-03-14T02:41:38.749Z,0
2018-03-14T02:42:40.384Z,0
2018-03-14T02:43:42.034Z,0
2018-03-14T02:44:43.685Z,0
2018-03-14T02:45:45.347Z,0
2018-03-14T02:46:46.999Z,0
2018-03-14T02:47:48.648Z,0
2018-03-14T02:48:50.300Z,0
2018-03-14T02:49:51.944Z,0
2018-03-14T02:50:53.596Z,0
2018-03-14T02:51:55.237Z,0
2018-03-14T02:52:56.896Z,0
2018-03-14T02:53:58.536Z,0
2018-03-14T02:55:00.192Z,0
2018-03-14T03:01:34.966Z,0
2018-03-14T03:02:36.612Z,0
2018-03-14T03:03:39.027Z,0
2018-03-14T03:04:40.676Z,0
2018-03-14T03:05:42.316Z,0
2018-03-14T03:06:43.964Z,0
2018-03-14T03:07:45.630Z,0
2018-03-14T03:08:48.184Z,0
2018-03-14T03:09:48.885Z,0
2018-03-14T03:10:50.535Z,0
2018-03-14T03:11:52.196Z,0
2018-03-14T03:12:53.844Z,0
2018-03-14T03:13:55.496Z,0
2018-03-14T03:14:57.143Z,0
2018-03-14T03:15:58.790Z,0
2018-03-14T03:17:00.443Z,0
2018-03-14T03:18:02.097Z,0
2018-03-14T03:19:03.742Z,0
2018-03-14T03:20:05.393Z,0
2018-03-14T03:21:07.054Z,0
2018-03-14T03:22:08.715Z,0
2018-03-14T03:23:10.369Z,0
2018-03-14T03:24:12.019Z,0
2018-03-14T03:25:13.661Z,0
2018-03-14T03:26:15.312Z,0
2018-03-14T03:27:16.957Z,0
2018-03-14T03:28:18.614Z,0
2018-03-14T03:29:20.262Z,0
2018-03-14T03:30:21.925Z,0
2018-03-14T03:31:23.579Z,0
2018-03-14T03:32:25.221Z,0
2018-03-14T03:33:26.878Z,0
2018-03-14T03:34:28.521Z,0
2018-03-14T03:35:30.224Z,0
2018-03-14T03:36:31.872Z,0
2018-03-14T03:37:33.521Z,0
2018-03-14T03:38:35.190Z,0
2018-03-14T03:39:36.833Z,0
2018-03-14T03:40:38.485Z,0
2018-03-14T03:41:40.141Z,0
2018-03-14T03:42:41.788Z,0
2018-03-14T03:43:43.441Z,0
2018-03-14T03:44:45.093Z,0
2018-03-14T03:45:46.747Z,0
2018-03-14T03:46:48.405Z,0
2018-03-14T03:47:50.053Z,0
2018-03-14T03:48:51.711Z,0
2018-03-14T03:49:53.360Z,0
2018-03-14T03:50:55.007Z,0
2018-03-14T03:51:56.665Z,0
2018-03-14T03:52:58.309Z,0
2018-03-14T03:53:59.960Z,0
2018-03-14T03:55:01.604Z,0
2018-03-14T03:56:03.252Z,0
2018-03-14T03:57:04.919Z,0
2018-03-14T03:58:06.564Z,0
2018-03-14T03:59:08.224Z,0
2018-03-14T04:00:09.881Z,0
2018-03-14T04:01:11.537Z,0
2018-03-14T04:02:13.205Z,0
2018-03-14T04:03:14.860Z,0
2018-03-14T04:04:16.521Z,0
2018-03-14T04:05:18.167Z,0
2018-03-14T04:06:19.871Z,0
2018-03-14T04:07:21.508Z,0
2018-03-14T04:08:23.168Z,0
2018-03-14T04:09:24.885Z,0
2018-03-14T04:10:26.552Z,0
2018-03-14T04:11:28.210Z,0
2018-03-14T04:12:29.869Z,0
2018-03-14T04:13:31.525Z,0
2018-03-14T04:14:33.193Z,0
2018-03-14T04:15:34.828Z,0
2018-03-14T04:16:36.466Z,0
2018-03-14T04:17:38.136Z,0
2018-03-14T04:18:39.789Z,0
2018-03-14T04:19:41.442Z,0
2018-03-14T04:20:43.104Z,0
2018-03-14T04:21:44.811Z,0
2018-03-14T04:22:46.463Z,0
2018-03-14T04:23:48.978Z,0
2018-03-14T04:24:50.631Z,0
2018-03-14T04:25:52.290Z,0
2018-03-14T04:26:53.948Z,0
2018-03-14T04:27:55.608Z,0
2018-03-14T04:28:57.251Z,0
2018-03-14T04:29:58.909Z,0
2018-03-14T04:31:00.566Z,0
2018-03-14T04:32:02.218Z,0
2018-03-14T04:33:03.889Z,0
2018-03-14T04:34:05.537Z,0
2018-03-14T04:35:07.187Z,0
2018-03-14T04:36:08.844Z,0
2018-03-14T04:37:10.488Z,0
2018-03-14T04:38:12.163Z,0
2018-03-14T04:39:13.815Z,0
2018-03-14T04:40:15.542Z,0
2018-03-14T04:41:17.203Z,0
2018-03-14T04:42:18.851Z,0
2018-03-14T04:43:20.508Z,0
2018-03-14T04:44:22.166Z,0
2018-03-14T04:45:23.820Z,0
2018-03-14T04:46:25.477Z,0
2018-03-14T04:47:27.131Z,0
2018-03-14T04:48:28.788Z,0
2018-03-14T04:49:30.441Z,0
2018-03-14T04:50:32.090Z,0
2018-03-14T04:51:34.509Z,0
2018-03-14T04:52:36.164Z,0
2018-03-14T04:53:37.836Z,0
2018-03-14T04:54:39.494Z,0
2018-03-14T04:55:41.155Z,0
2018-03-14T04:56:42.816Z,0
2018-03-14T04:57:44.465Z,0
2018-03-14T04:58:46.125Z,0
2018-03-14T04:59:47.805Z,0
2018-03-14T05:00:49.451Z,0
2018-03-14T05:01:51.113Z,0
2018-03-14T05:02:52.763Z,0
2018-03-14T05:03:54.421Z,0
2018-03-14T05:04:56.077Z,0
2018-03-14T05:05:57.729Z,0
2018-03-14T05:06:59.386Z,0
2018-03-14T05:08:01.040Z,0
2018-03-14T05:09:02.704Z,0
2018-03-14T05:10:04.370Z,0
2018-03-14T05:11:06.029Z,0
2018-03-14T05:12:07.690Z,0
2018-03-14T05:13:09.349Z,0
2018-03-14T05:14:11.002Z,0
2018-03-14T05:15:13.470Z,0
2018-03-14T05:16:15.122Z,0
2018-03-14T05:17:16.778Z,0
2018-03-14T05:18:18.435Z,4
2018-03-14T05:19:20.090Z,4
2018-03-14T05:20:21.736Z,8
2018-03-14T05:21:23.385Z,4
2018-03-14T05:22:25.075Z,4
2018-03-14T05:23:26.728Z,4
2018-03-14T05:24:28.373Z,8
2018-03-14T05:25:30.027Z,8
2018-03-14T05:26:31.713Z,8
2018-03-14T05:27:33.364Z,12
2018-03-14T05:28:35.017Z,16
2018-03-14T05:29:36.675Z,20
2018-03-14T05:30:38.323Z,16
2018-03-14T05:31:39.975Z,16
2018-03-14T05:32:41.638Z,16
2018-03-14T05:33:43.284Z,24
2018-03-14T05:34:44.945Z,28
2018-03-14T05:35:46.604Z,32
2018-03-14T05:36:48.259Z,36
2018-03-14T05:37:49.967Z,48
2018-03-14T05:38:51.578Z,60
2018-03-14T05:39:53.249Z,52
2018-03-14T05:40:54.910Z,52
2018-03-14T05:41:56.560Z,60
2018-03-14T05:42:58.214Z,72
2018-03-14T05:43:59.863Z,68
2018-03-14T05:45:01.565Z,84
2018-03-14T05:46:03.219Z,104
2018-03-14T05:47:04.871Z,144
2018-03-14T05:48:06.517Z,152
2018-03-14T05:49:08.170Z,136
2018-03-14T05:50:09.828Z,140
2018-03-14T05:51:11.509Z,172
2018-03-14T05:52:13.157Z,180
2018-03-14T05:53:14.813Z,196
2018-03-14T05:54:16.481Z,208
2018-03-14T05:55:18.124Z,196
2018-03-14T05:56:19.786Z,200
2018-03-14T05:57:21.422Z,196
2018-03-14T05:58:23.075Z,180
2018-03-14T05:59:24.727Z,172
2018-03-14T06:00:26.409Z,172
2018-03-14T06:01:28.056Z,220
2018-03-14T06:02:29.715Z,288
2018-03-14T06:03:31.372Z,392
2018-03-14T06:04:33.018Z,404
2018-03-14T06:05:34.676Z,388
2018-03-14T06:06:36.396Z,420
2018-03-14T06:07:38.002Z,536
2018-03-14T06:08:39.665Z,584
2018-03-14T06:09:41.318Z,560
2018-03-14T06:10:42.992Z,480
2018-03-14T06:11:44.645Z,416
2018-03-14T06:12:46.297Z,424
2018-03-14T06:13:48.738Z,404
2018-03-14T06:14:50.387Z,460
2018-03-14T06:15:52.054Z,580
2018-03-14T06:16:53.787Z,560
2018-03-14T06:17:55.434Z,508
2018-03-14T06:18:57.095Z,516
2018-03-14T06:19:58.752Z,624
2018-03-14T06:21:00.398Z,840
2018-03-14T06:22:02.069Z,1020
2018-03-14T06:23:04.057Z,1232
2018-03-14T06:24:05.785Z,1384
2018-03-14T06:25:07.433Z,1400
2018-03-14T06:26:09.132Z,1368
2018-03-14T06:27:10.744Z,1264
2018-03-14T06:28:12.398Z,1328
2018-03-14T06:29:14.050Z,1612
2018-03-14T06:30:15.714Z,1936
2018-03-14T06:31:17.367Z,2032
2018-03-14T06:32:19.013Z,1536
2018-03-14T06:33:20.679Z,1516
2018-03-14T06:34:22.333Z,1476
2018-03-14T06:35:23.980Z,1448
2018-03-14T06:36:25.635Z,1560
2018-03-14T06:37:27.297Z,2140
2018-03-14T06:38:28.958Z,2548
2018-03-14T06:39:30.615Z,2872
2018-03-14T06:40:32.280Z,3148
2018-03-14T06:41:33.926Z,3224
2018-03-14T06:42:35.591Z,2928
2018-03-14T06:43:37.251Z,2600
2018-03-14T06:44:38.903Z,2204
2018-03-14T06:45:40.558Z,1868
2018-03-14T06:46:42.209Z,1748
2018-03-14T06:47:43.862Z,1652
2018-03-14T06:48:45.525Z,2268
2018-03-14T06:49:47.200Z,3076
2018-03-14T06:50:48.858Z,3532
2018-03-14T06:51:50.527Z,3964
2018-03-14T06:52:52.182Z,3808
2018-03-14T06:53:53.828Z,3380
2018-03-14T06:54:55.492Z,3536
2018-03-14T07:01:05.812Z,4816
2018-03-14T07:02:07.478Z,4228
2018-03-14T07:03:09.108Z,4816
2018-03-14T07:04:10.770Z,5200
2018-03-14T07:05:12.414Z,5384
2018-03-14T07:06:14.071Z,5664
2018-03-14T07:07:15.726Z,5860
2018-03-14T07:08:17.384Z,5352
2018-03-14T07:09:19.033Z,4956
2018-03-14T07:10:20.696Z,4928
2018-03-14T07:11:22.355Z,5076
2018-03-14T07:12:24.021Z,5208
2018-03-14T07:13:25.672Z,5464
2018-03-14T07:14:27.333Z,5396
2018-03-14T07:15:28.993Z,5504
2018-03-14T07:16:30.642Z,6060
2018-03-14T07:17:32.301Z,6856
2018-03-14T07:18:33.948Z,6752
2018-03-14T07:19:35.606Z,5960
2018-03-14T07:20:37.254Z,5512
2018-03-14T07:21:38.916Z,5468
2018-03-14T07:22:40.583Z,5672
2018-03-14T07:23:42.225Z,5688
2018-03-14T07:24:43.872Z,5648
2018-03-14T07:25:45.530Z,5656
2018-03-14T07:26:47.192Z,5472
2018-03-14T07:27:48.845Z,5232
2018-03-14T07:28:50.506Z,5384
2018-03-14T07:29:52.165Z,5732
2018-03-14T07:30:53.813Z,6232
2018-03-14T07:31:55.474Z,5852
2018-03-14T07:32:57.141Z,5136
2018-03-14T07:33:58.796Z,4520
2018-03-14T07:35:00.451Z,4108
2018-03-14T07:36:02.102Z,4052
2018-03-14T07:37:04.531Z,4332
2018-03-14T07:38:06.183Z,5312
2018-03-14T07:39:07.838Z,6592
2018-03-14T07:40:09.491Z,6988
2018-03-14T07:41:11.147Z,7176
2018-03-14T07:42:12.799Z,7092
2018-03-14T07:43:14.454Z,6400
2018-03-14T07:44:16.114Z,5896
2018-03-14T07:45:17.758Z,6124
2018-03-14T07:46:19.418Z,6796
2018-03-14T07:47:21.082Z,7712
2018-03-14T07:48:22.742Z,9284
2018-03-14T07:49:24.396Z,9536
2018-03-14T07:50:26.064Z,8344
2018-03-14T07:51:27.732Z,8220
2018-03-14T07:52:29.397Z,8576
2018-03-14T07:53:31.062Z,7964
2018-03-14T07:54:32.749Z,7268
2018-03-14T07:55:34.403Z,7252
2018-03-14T07:56:36.067Z,6928
2018-03-14T07:57:37.732Z,7848
2018-03-14T07:58:39.390Z,9152
2018-03-14T07:59:41.043Z,9168
2018-03-14T08:00:43.252Z,7688
2018-03-14T08:01:44.917Z,6732
2018-03-14T08:02:46.567Z,7308
2018-03-14T08:03:48.227Z,8532
2018-03-14T08:04:49.887Z,9396
2018-03-14T08:05:51.550Z,10336
2018-03-14T08:06:53.208Z,10660
2018-03-14T08:07:54.855Z,10212
2018-03-14T08:08:56.524Z,10172
2018-03-14T08:09:59.144Z,10096
2018-03-14T08:11:00.791Z,9044
2018-03-14T08:12:02.456Z,8168
2018-03-14T08:13:04.120Z,8156
2018-03-14T08:14:05.795Z,8396
2018-03-14T08:15:07.445Z,8016
2018-03-14T08:16:09.092Z,8380
2018-03-14T08:17:10.751Z,8996
2018-03-14T08:18:12.410Z,9416
2018-03-14T08:19:14.076Z,10528
2018-03-14T08:20:17.841Z,11588
2018-03-14T08:21:19.476Z,12324
2018-03-14T08:22:21.076Z,13100
2018-03-14T08:23:22.745Z,13948
2018-03-14T08:24:25.734Z,14244
2018-03-14T08:25:27.365Z,14044
2018-03-14T08:26:29.024Z,13240
2018-03-14T08:27:30.697Z,12988
2018-03-14T08:28:32.364Z,13376
2018-03-14T08:29:34.023Z,14520
2018-03-14T08:30:35.694Z,15692
2018-03-14T08:31:37.351Z,15796
2018-03-14T08:32:39.011Z,15196
2018-03-14T08:33:40.698Z,14756
2018-03-14T08:34:42.354Z,14180
2018-03-14T08:35:44.015Z,13032
2018-03-14T08:36:45.676Z,12676
2018-03-14T08:37:47.342Z,12708
2018-03-14T08:38:49.011Z,12540
2018-03-14T08:39:50.676Z,12160
2018-03-14T08:40:52.336Z,12044
2018-03-14T08:41:54.001Z,12504
2018-03-14T08:42:55.652Z,13472
2018-03-14T08:43:57.313Z,13460
2018-03-14T08:44:58.984Z,12816
2018-03-14T08:46:00.643Z,11496
2018-03-14T08:47:02.305Z,10952
2018-03-14T08:48:03.973Z,10488
2018-03-14T08:49:05.626Z,9952
2018-03-14T08:50:07.280Z,9976
2018-03-14T08:51:08.938Z,10692
2018-03-14T08:52:10.603Z,11624
2018-03-14T08:53:12.259Z,12516
2018-03-14T08:54:13.923Z,13040
2018-03-14T08:55:15.597Z,13484
2018-03-14T08:56:18.614Z,13704
2018-03-14T08:57:20.282Z,14392
2018-03-14T08:58:21.935Z,14684
2018-03-14T08:59:23.598Z,15124
2018-03-14T09:00:25.258Z,15540
2018-03-14T09:01:26.954Z,15548
2018-03-14T09:02:28.634Z,16004
2018-03-14T09:03:30.295Z,16108
2018-03-14T09:04:31.958Z,15344
2018-03-14T09:05:33.626Z,14640
2018-03-14T09:06:35.291Z,14600
2018-03-14T09:07:36.945Z,15556
2018-03-14T09:08:38.615Z,17824
2018-03-14T09:09:40.272Z,19680
2018-03-14T09:10:41.945Z,21120
2018-03-14T09:11:43.607Z,22176
2018-03-14T09:12:45.293Z,22464
2018-03-14T09:13:46.950Z,22912
2018-03-14T09:14:48.615Z,23104
2018-03-14T09:15:50.276Z,23232
2018-03-14T09:16:51.955Z,24032
2018-03-14T09:17:53.628Z,24160
2018-03-14T09:18:55.290Z,23424
2018-03-14T09:19:56.960Z,22848
2018-03-14T09:20:58.622Z,22464
2018-03-14T09:22:00.283Z,21312
2018-03-14T09:23:01.945Z,20128
2018-03-14T09:24:03.606Z,18816
2018-03-14T09:25:05.274Z,17664
2018-03-14T09:26:06.919Z,16708
2018-03-14T09:27:08.590Z,15620
2018-03-14T09:28:10.279Z,14360
2018-03-14T09:29:11.962Z,14088
2018-03-14T09:30:13.634Z,14260
2018-03-14T09:31:15.289Z,14000
2018-03-14T09:32:16.958Z,13572
2018-03-14T09:33:18.645Z,14972
2018-03-14T09:34:20.282Z,18528
2018-03-14T09:35:21.949Z,20960
2018-03-14T09:36:23.610Z,21088
2018-03-14T09:37:25.279Z,20192
2018-03-14T09:38:26.958Z,19232
2018-03-14T09:39:28.618Z,19584
2018-03-14T09:40:30.285Z,18976
2018-03-14T09:41:31.939Z,17000
2018-03-14T09:42:33.603Z,15080
2018-03-14T09:43:35.269Z,13492
2018-03-14T09:44:36.934Z,12060
2018-03-14T09:45:38.594Z,10764
2018-03-14T09:46:40.274Z,9980
2018-03-14T09:47:41.967Z,10040
2018-03-14T09:48:43.638Z,10376
2018-03-14T09:49:45.302Z,10580
2018-03-14T09:50:46.959Z,10592
2018-03-14T09:51:48.623Z,10504
2018-03-14T09:52:50.302Z,10528
2018-03-14T09:53:51.961Z,11328
2018-03-14T09:54:53.625Z,12664
2018-03-14T09:55:55.272Z,15464
2018-03-14T09:56:56.940Z,18368
2018-03-14T09:57:58.595Z,21376
2018-03-14T09:59:00.260Z,24128
2018-03-14T10:00:01.931Z,27328
2018-03-14T10:01:03.584Z,29408
2018-03-14T10:02:05.253Z,28352
2018-03-14T10:03:06.915Z,29024
2018-03-14T10:04:08.579Z,30464
2018-03-14T10:05:10.253Z,27936
2018-03-14T10:06:11.907Z,29216
2018-03-14T10:07:13.569Z,30944
2018-03-14T10:08:15.240Z,79712
2018-03-14T10:09:16.912Z,66720
2018-03-14T10:10:18.577Z,40608
2018-03-14T10:11:20.244Z,34496
2018-03-14T10:12:21.915Z,36256
2018-03-14T10:13:23.583Z,39328
2018-03-14T10:14:25.254Z,43680
2018-03-14T10:15:26.916Z,104064
2018-03-14T10:16:28.576Z,56416
2018-03-14T10:17:30.234Z,49376
2018-03-14T10:18:31.895Z,115584
2018-03-14T10:19:33.566Z,123776
2018-03-14T10:20:35.239Z,49600
2018-03-14T10:21:36.904Z,47104
2018-03-14T10:22:38.591Z,130112
2018-03-14T10:23:40.260Z,120064
2018-03-14T10:24:41.926Z,41920
2018-03-14T10:25:43.634Z,125280
2018-03-14T10:26:45.223Z,121952
2018-03-14T10:27:46.888Z,112768
2018-03-14T10:28:48.568Z,28512
2018-03-14T10:29:50.242Z,28576
2018-03-14T10:30:51.916Z,23584
2018-03-14T10:31:53.595Z,21632
2018-03-14T10:32:55.301Z,20128
2018-03-14T10:33:56.972Z,17164
2018-03-14T10:34:58.639Z,15076
2018-03-14T10:36:00.306Z,14568
2018-03-14T10:37:01.974Z,14312
2018-03-14T10:38:03.649Z,14608
2018-03-14T10:39:05.313Z,15380
2018-03-14T10:40:06.988Z,17316
2018-03-14T10:41:08.695Z,20736
2018-03-14T10:42:10.318Z,22208
2018-03-14T10:43:12.084Z,22112
2018-03-14T10:44:13.781Z,19808
2018-03-14T10:45:15.453Z,17824
2018-03-14T10:46:17.108Z,17076
2018-03-14T10:47:18.766Z,17140
2018-03-14T10:48:20.444Z,17856
2018-03-14T10:49:22.114Z,17308
2018-03-14T10:50:23.792Z,17240
2018-03-14T10:51:25.468Z,18560
2018-03-14T10:52:27.134Z,19392
2018-03-14T10:53:28.809Z,43648
2018-03-14T10:54:32.037Z,118176
2018-03-14T10:55:33.708Z,110784
2018-03-14T11:01:55.500Z,47008
2018-03-14T11:02:57.160Z,31264
2018-03-14T11:03:58.816Z,26240
2018-03-14T11:05:00.484Z,21216
2018-03-14T11:06:02.156Z,19968
2018-03-14T11:07:03.819Z,20768
2018-03-14T11:08:05.501Z,21600
2018-03-14T11:09:07.179Z,20704
2018-03-14T11:10:08.839Z,19584
2018-03-14T11:11:10.496Z,17112
2018-03-14T11:12:12.169Z,15500
2018-03-14T11:13:13.840Z,15824
2018-03-14T11:14:15.522Z,18048
2018-03-14T11:15:17.194Z,20800
2018-03-14T11:16:18.859Z,23680
2018-03-14T11:17:20.551Z,25184
2018-03-14T11:18:22.217Z,52288
2018-03-14T11:19:23.895Z,97792
2018-03-14T11:20:25.574Z,114048
2018-03-14T11:21:27.279Z,115904
2018-03-14T11:22:28.911Z,112192
2018-03-14T11:23:30.600Z,117184
2018-03-14T11:24:32.265Z,46528
2018-03-14T11:25:33.973Z,43296
2018-03-14T11:26:35.606Z,57760
2018-03-14T11:27:37.274Z,65344
2018-03-14T11:28:38.937Z,44992
2018-03-14T11:29:40.611Z,38816
2018-03-14T11:30:42.290Z,35360
2018-03-14T11:31:43.959Z,55904
2018-03-14T11:32:45.626Z,35680
2018-03-14T11:33:47.354Z,30144
2018-03-14T11:34:49.020Z,33312
2018-03-14T11:35:50.674Z,32512
2018-03-14T11:36:52.454Z,32864
2018-03-14T11:37:54.142Z,43360
2018-03-14T11:38:55.794Z,43328
2018-03-14T11:39:57.457Z,54496
2018-03-14T11:40:59.116Z,29344
2018-03-14T11:42:00.798Z,27392
2018-03-14T11:43:02.470Z,28320
2018-03-14T11:44:04.157Z,28544
2018-03-14T11:45:05.828Z,26368
2018-03-14T11:46:07.506Z,24928
2018-03-14T11:47:09.172Z,22816
2018-03-14T11:48:10.829Z,21280
2018-03-14T11:49:12.492Z,20832
2018-03-14T11:50:14.159Z,20736
2018-03-14T11:51:15.826Z,21088
2018-03-14T11:52:17.488Z,23552
2018-03-14T11:53:19.156Z,67520
2018-03-14T11:54:20.826Z,40096
2018-03-14T11:55:22.500Z,32608
2018-03-14T11:56:24.161Z,35584
2018-03-14T11:57:25.827Z,29888
2018-03-14T11:58:27.497Z,26880
2018-03-14T11:59:29.157Z,22592
2018-03-14T12:00:30.818Z,20992
2018-03-14T12:01:32.488Z,23360
2018-03-14T12:02:34.161Z,30496
2018-03-14T12:03:35.828Z,29856
2018-03-14T12:04:37.491Z,36384
2018-03-14T12:05:39.160Z,46176
2018-03-14T12:06:40.825Z,41664
2018-03-14T12:07:42.486Z,33024
2018-03-14T12:08:44.162Z,32992
2018-03-14T12:09:45.828Z,35104
2018-03-14T12:10:47.486Z,32544
2018-03-14T12:11:49.165Z,32352
2018-03-14T12:12:50.842Z,32832
2018-03-14T12:13:52.515Z,33472
2018-03-14T12:14:54.186Z,33984
2018-03-14T12:15:55.843Z,74848
2018-03-14T12:16:57.513Z,37344
2018-03-14T12:17:59.189Z,38496
2018-03-14T12:19:00.862Z,39904
2018-03-14T12:20:02.533Z,43456
2018-03-14T12:21:04.225Z,41472
2018-03-14T12:22:05.905Z,142912
2018-03-14T12:23:07.604Z,133664
2018-03-14T12:24:09.271Z,136256
2018-03-14T12:25:10.939Z,139424
2018-03-14T12:26:12.607Z,130048
2018-03-14T12:27:14.272Z,72320
2018-03-14T12:28:15.948Z,49248
2018-03-14T12:29:17.601Z,42176
2018-03-14T12:30:19.271Z,40928
2018-03-14T12:31:20.946Z,41344
2018-03-14T12:32:22.622Z,34688
2018-03-14T12:33:24.289Z,32640
2018-03-14T12:34:25.953Z,29728
2018-03-14T12:35:27.627Z,25536
2018-03-14T12:36:29.286Z,22336
2018-03-14T12:37:30.956Z,20512
2018-03-14T12:38:32.653Z,20096
2018-03-14T12:39:34.295Z,20320
2018-03-14T12:40:35.971Z,20640
2018-03-14T12:41:37.637Z,21920
2018-03-14T12:42:39.305Z,23360
2018-03-14T12:43:40.973Z,25600
2018-03-14T12:44:42.638Z,37824
2018-03-14T12:45:44.305Z,30144
2018-03-14T12:46:45.964Z,57504
2018-03-14T12:47:47.646Z,28576
2018-03-14T12:48:49.322Z,24800
2018-03-14T12:49:51.008Z,23872
2018-03-14T12:50:52.695Z,21568
2018-03-14T12:51:54.364Z,19264
2018-03-14T12:52:56.029Z,18368
2018-03-14T12:53:57.708Z,18400
2018-03-14T12:54:59.372Z,18848
2018-03-14T12:56:01.052Z,18624
2018-03-14T12:57:02.720Z,17136
2018-03-14T12:58:04.391Z,15692
2018-03-14T12:59:06.058Z,14952
2018-03-14T13:00:07.721Z,15100
2018-03-14T13:01:09.391Z,15512
2018-03-14T13:02:11.064Z,16512
2018-03-14T13:03:12.735Z,18016
2018-03-14T13:04:14.389Z,20672
2018-03-14T13:05:16.131Z,20320
2018-03-14T13:06:17.805Z,20800
2018-03-14T13:07:19.470Z,20864
2018-03-14T13:08:21.183Z,20960
2018-03-14T13:09:22.849Z,22176
2018-03-14T13:10:24.513Z,23520
2018-03-14T13:11:26.277Z,23968
2018-03-14T13:12:27.898Z,24448
2018-03-14T13:13:29.560Z,22144
2018-03-14T13:14:31.314Z,20192
2018-03-14T13:15:32.953Z,18400
2018-03-14T13:16:34.624Z,17396
2018-03-14T13:17:36.299Z,17224
2018-03-14T13:18:37.967Z,19264
2018-03-14T13:19:39.650Z,25312
2018-03-14T13:20:41.312Z,26752
2018-03-14T13:21:42.965Z,29888
2018-03-14T13:22:44.647Z,31712
2018-03-14T13:23:46.309Z,30048
2018-03-14T13:24:48.002Z,28416
2018-03-14T13:25:49.667Z,30656
2018-03-14T13:26:51.324Z,29376
2018-03-14T13:27:53.016Z,30496
2018-03-14T13:28:54.690Z,37248
2018-03-14T13:29:56.333Z,39200
2018-03-14T13:30:58.014Z,41280
2018-03-14T13:31:59.680Z,31136
2018-03-14T13:33:01.345Z,29376
2018-03-14T13:34:03.003Z,28608
2018-03-14T13:35:04.705Z,28320
2018-03-14T13:36:06.403Z,29376
2018-03-14T13:37:08.070Z,33024
2018-03-14T13:38:09.844Z,30464
2018-03-14T13:39:11.436Z,29376
2018-03-14T13:40:14.103Z,28000
2018-03-14T13:41:15.781Z,27040
2018-03-14T13:42:17.444Z,27232
2018-03-14T13:43:19.109Z,26784
2018-03-14T13:44:20.788Z,27360
2018-03-14T13:45:22.448Z,27808
2018-03-14T13:46:24.233Z,29152
2018-03-14T13:47:25.891Z,29536
2018-03-14T13:48:27.558Z,29632
2018-03-14T13:49:29.230Z,32704
2018-03-14T13:50:30.906Z,36256
2018-03-14T13:51:32.571Z,34080
2018-03-14T13:52:34.259Z,33152
2018-03-14T13:53:35.909Z,27584
2018-03-14T13:54:37.614Z,25536
2018-03-14T13:55:39.282Z,22048
2018-03-14T13:56:40.943Z,18720
2018-03-14T13:57:42.630Z,16608
2018-03-14T13:58:44.311Z,16084
2018-03-14T13:59:45.988Z,15760
2018-03-14T14:00:47.644Z,15040
2018-03-14T14:01:49.305Z,14228
2018-03-14T14:02:50.985Z,12992
2018-03-14T14:03:52.637Z,18528
2018-03-14T14:04:54.314Z,9924
2018-03-14T14:05:55.982Z,16384
2018-03-14T14:06:57.634Z,17232
2018-03-14T14:07:59.306Z,9268
2018-03-14T14:09:00.992Z,18496
2018-03-14T14:10:02.652Z,18144
2018-03-14T14:11:04.315Z,12748
2018-03-14T14:12:05.979Z,10916
2018-03-14T14:13:07.654Z,9324
2018-03-14T14:14:09.348Z,9300
2018-03-14T14:15:10.997Z,17664
2018-03-14T14:16:12.672Z,12420
2018-03-14T14:17:14.345Z,19712
2018-03-14T14:18:15.991Z,14608
2018-03-14T14:19:17.666Z,19968